ESNU/UME METAR and TAF weather

Enter ICAO airport designator
Station Type Date Time Source
ESNU METAR 2020/07/07 08:50 UTC NOAA

ESNU 070850Z VRB03KT 9999 SCT023 BKN048 15/10 Q0995


Station Type Date Time Source
ESNU Decoded METAR 2020/07/07 08:50 UTC NOAA

Umea Flygplats, Sweden (ESNU) 63-48N 020-17E 14M
Jul 07, 2020 - 04:50 AM EDT / 2020.07.07 0850 UTC
Wind: Variable at 3 MPH (3 KT):0
Visibility: greater than 7 mile(s):0
Sky conditions: mostly cloudy
Temperature: 59 F (15 C)
Dew Point: 50 F (10 C)
Relative Humidity: 72%
Pressure (altimeter): 29.38 in. Hg (0995 hPa)
ob: ESNU 070850Z VRB03KT 9999 SCT023 BKN048 15/10 Q0995
cycle: 9

Station Type Date Time Source
ESNU TAF 2019/10/24 00:55 UTC NOAA

TAF
AMD ESNU 242348Z 2500/2524 16003KT 0200 FG VV002 PROB40 2500/2509 8000 -RA BKN005

Example: see airport list